createdAt,value
2023-12-28T00:00:51.356Z,9.73
2023-12-28T00:03:39.075Z,13.00
2023-12-28T00:06:26.795Z,10.43
2023-12-28T00:09:14.623Z,9.50
2023-12-28T00:12:02.455Z,8.82
2023-12-28T00:14:50.135Z,9.05
2023-12-28T00:17:37.862Z,9.90
2023-12-28T00:20:26.446Z,7.43
2023-12-28T00:23:15.004Z,10.35
2023-12-28T00:26:02.638Z,10.38
2023-12-28T00:28:50.883Z,10.88
2023-12-28T00:31:38.983Z,10.13
2023-12-28T00:34:27.238Z,9.00
2023-12-28T00:37:15.258Z,9.20
2023-12-28T00:40:02.917Z,9.50
2023-12-28T00:42:50.805Z,8.85
2023-12-28T00:45:38.517Z,10.90
2023-12-28T00:48:26.227Z,12.57
2023-12-28T00:51:15.461Z,12.55
2023-12-28T00:54:02.997Z,12.57
2023-12-28T00:56:50.626Z,13.10
2023-12-28T00:59:38.238Z,13.18
2023-12-28T01:02:25.997Z,12.10
2023-12-28T01:05:13.925Z,12.68
2023-12-28T01:08:03.785Z,10.75
2023-12-28T01:10:51.935Z,8.50
2023-12-28T01:13:42.429Z,7.45
2023-12-28T01:16:30.517Z,5.05
2023-12-28T01:19:18.472Z,4.82
2023-12-28T01:22:06.250Z,5.80
2023-12-28T01:24:54.159Z,7.75
2023-12-28T01:27:41.783Z,7.35
2023-12-28T01:30:29.778Z,5.22
2023-12-28T01:33:18.430Z,4.68
2023-12-28T01:36:36.011Z,6.72
2023-12-28T01:39:23.797Z,5.85
2023-12-28T01:42:11.485Z,5.40
2023-12-28T01:44:59.293Z,5.68
2023-12-28T01:47:47.580Z,5.28
2023-12-28T01:50:35.301Z,4.55
2023-12-28T01:53:23.400Z,6.68
2023-12-28T01:56:11.336Z,4.85
2023-12-28T01:58:59.840Z,4.82
2023-12-28T02:01:47.786Z,5.32
2023-12-28T02:04:36.530Z,3.92
2023-12-28T02:07:25.527Z,4.65
2023-12-28T02:10:14.005Z,4.35
2023-12-28T02:13:01.573Z,5.30
2023-12-28T02:15:53.547Z,5.78
2023-12-28T02:18:45.734Z,4.10
2023-12-28T02:21:33.938Z,4.40
2023-12-28T02:24:30.782Z,3.65
2023-12-28T02:27:19.774Z,5.28
2023-12-28T02:30:08.655Z,5.88
2023-12-28T02:33:11.921Z,5.30
2023-12-28T02:36:02.544Z,5.80
2023-12-28T02:38:50.715Z,6.45
2023-12-28T02:41:38.996Z,6.05
2023-12-28T02:44:26.750Z,6.45
2023-12-28T02:47:15.372Z,6.20
2023-12-28T02:50:03.173Z,7.18
2023-12-28T02:52:50.871Z,7.85
2023-12-28T02:55:38.474Z,7.25
2023-12-28T02:58:26.071Z,10.15
2023-12-28T03:01:13.922Z,12.90
2023-12-28T03:04:01.746Z,12.05
2023-12-28T03:06:49.543Z,10.77
2023-12-28T03:09:39.724Z,8.90
2023-12-28T03:12:27.431Z,9.75
2023-12-28T03:15:15.302Z,9.70
2023-12-28T03:18:06.663Z,7.57
2023-12-28T03:20:54.529Z,8.13
2023-12-28T03:23:42.122Z,8.27
2023-12-28T03:26:30.111Z,9.13
2023-12-28T03:29:18.058Z,10.15
2023-12-28T03:32:06.008Z,9.32
2023-12-28T03:34:53.667Z,9.65
2023-12-28T03:37:41.237Z,14.48
2023-12-28T03:40:28.807Z,15.27
2023-12-28T03:43:16.403Z,14.80
2023-12-28T03:46:04.059Z,14.85
2023-12-28T03:48:52.373Z,14.07
2023-12-28T03:51:40.154Z,11.68
2023-12-28T03:54:27.795Z,16.15
2023-12-28T03:57:15.618Z,11.43
2023-12-28T04:00:03.528Z,10.05
2023-12-28T04:03:03.236Z,14.48
2023-12-28T04:05:52.472Z,8.85
2023-12-28T04:08:43.598Z,7.70
2023-12-28T04:11:31.670Z,10.68
2023-12-28T04:14:19.413Z,6.68
2023-12-28T04:17:09.970Z,7.78
2023-12-28T04:19:58.967Z,10.77
2023-12-28T04:22:47.237Z,8.15
2023-12-28T04:25:34.843Z,4.95
2023-12-28T04:28:22.494Z,6.97
2023-12-28T04:31:10.480Z,4.85
2023-12-28T04:33:58.712Z,5.93
2023-12-28T04:36:48.050Z,5.90
2023-12-28T04:39:35.991Z,5.38
2023-12-28T04:42:26.116Z,4.30
2023-12-28T04:45:14.038Z,4.30
2023-12-28T04:48:02.243Z,4.30
2023-12-28T04:50:51.536Z,7.30
2023-12-28T04:53:40.549Z,5.80
2023-12-28T04:56:28.308Z,4.97
2023-12-28T04:59:16.087Z,7.18
2023-12-28T05:02:03.881Z,6.22
2023-12-28T05:04:52.063Z,7.82
2023-12-28T05:07:43.472Z,8.93
2023-12-28T05:10:36.346Z,8.45
2023-12-28T05:13:24.186Z,9.32
2023-12-28T05:16:11.980Z,9.65
2023-12-28T05:18:59.809Z,8.00
2023-12-28T05:21:48.531Z,10.80
2023-12-28T05:24:41.066Z,9.70
2023-12-28T05:27:29.996Z,8.40
2023-12-28T05:30:18.676Z,7.93
2023-12-28T05:33:07.790Z,8.43
2023-12-28T05:35:56.167Z,7.97
2023-12-28T05:38:43.905Z,7.47
2023-12-28T05:41:31.765Z,6.85
2023-12-28T05:44:19.719Z,10.77
2023-12-28T05:47:07.369Z,9.65
2023-12-28T05:49:55.654Z,7.53
2023-12-28T05:52:44.370Z,12.25
2023-12-28T05:55:32.463Z,11.23
2023-12-28T05:58:20.292Z,11.38
2023-12-28T06:01:08.197Z,9.65
2023-12-28T06:03:56.047Z,9.45
2023-12-28T06:06:43.812Z,9.10
2023-12-28T06:09:31.679Z,10.15
2023-12-28T06:12:19.448Z,10.88
2023-12-28T06:15:10.689Z,9.95
2023-12-28T06:17:59.328Z,11.38
2023-12-28T06:20:47.100Z,10.75
2023-12-28T06:23:34.792Z,15.38
2023-12-28T06:26:22.521Z,17.73
2023-12-28T06:29:11.419Z,15.00
2023-12-28T06:31:59.089Z,19.98
2023-12-28T06:34:46.827Z,30.15
2023-12-28T06:37:34.710Z,32.45
2023-12-28T06:40:22.357Z,27.35
2023-12-28T06:43:09.979Z,26.05
2023-12-28T06:45:57.622Z,27.45
2023-12-28T06:48:45.460Z,20.73
2023-12-28T06:51:34.573Z,36.92
2023-12-28T06:54:22.580Z,29.98
2023-12-28T06:57:10.270Z,19.05
2023-12-28T06:59:59.727Z,11.93
2023-12-28T07:02:47.500Z,9.90
2023-12-28T07:05:35.297Z,9.30
2023-12-28T07:08:23.053Z,10.10
2023-12-28T07:11:15.513Z,14.07
2023-12-28T07:14:03.194Z,16.20
2023-12-28T07:16:51.016Z,15.20
2023-12-28T07:19:38.748Z,17.35
2023-12-28T07:22:26.401Z,25.60
2023-12-28T07:25:14.183Z,17.98
2023-12-28T07:28:02.227Z,13.40
2023-12-28T07:30:50.159Z,16.35
2023-12-28T07:33:37.892Z,14.00
2023-12-28T07:36:27.816Z,14.48
2023-12-28T07:39:16.319Z,16.58
2023-12-28T07:42:03.991Z,13.43
2023-12-28T07:44:51.669Z,10.43
2023-12-28T07:47:39.450Z,7.88
2023-12-28T07:50:27.376Z,9.13
2023-12-28T07:53:15.044Z,12.10
2023-12-28T07:56:04.802Z,13.48
2023-12-28T07:58:53.931Z,7.53
2023-12-28T08:01:41.671Z,7.60
2023-12-28T08:04:29.587Z,8.32
2023-12-28T08:07:17.240Z,7.60
2023-12-28T08:10:05.344Z,11.73
2023-12-28T08:12:52.999Z,9.15
2023-12-28T08:15:40.824Z,9.43
2023-12-28T08:18:28.465Z,12.27
2023-12-28T08:21:16.317Z,9.38
2023-12-28T08:24:04.231Z,6.50
2023-12-28T08:26:54.260Z,5.55
2023-12-28T08:29:43.629Z,5.13
2023-12-28T08:32:32.023Z,4.50
2023-12-28T08:35:19.722Z,3.72
2023-12-28T08:38:08.005Z,5.95
2023-12-28T08:40:55.588Z,4.32
2023-12-28T08:43:44.198Z,4.38
2023-12-28T08:46:32.504Z,3.97
2023-12-28T08:49:20.520Z,4.15
2023-12-28T08:52:08.376Z,4.45
2023-12-28T08:54:56.761Z,4.97
2023-12-28T08:57:45.241Z,4.57
2023-12-28T09:00:33.178Z,4.60
2023-12-28T09:03:25.267Z,5.38
2023-12-28T09:09:05.323Z,4.30
2023-12-28T09:11:53.959Z,4.47
2023-12-28T09:14:41.587Z,5.63
2023-12-28T09:17:29.306Z,6.43
2023-12-28T09:20:17.037Z,5.85
2023-12-28T09:23:04.934Z,6.38
2023-12-28T09:25:53.545Z,5.57
2023-12-28T09:28:42.169Z,4.82
2023-12-28T09:31:29.881Z,5.70
2023-12-28T09:34:20.550Z,5.18
2023-12-28T09:37:10.763Z,4.50
2023-12-28T09:39:59.167Z,5.65
2023-12-28T09:42:52.814Z,5.65
2023-12-28T09:45:40.628Z,5.20
2023-12-28T09:48:33.903Z,4.78
2023-12-28T09:51:21.846Z,3.78
2023-12-28T09:54:09.446Z,4.53
2023-12-28T09:56:58.156Z,4.22
2023-12-28T09:59:45.822Z,4.20
2023-12-28T10:02:37.010Z,4.45
2023-12-28T10:05:24.761Z,3.65
2023-12-28T10:08:17.306Z,3.30
2023-12-28T10:11:05.834Z,4.85
2023-12-28T10:13:56.402Z,3.63
2023-12-28T10:16:44.111Z,2.40
2023-12-28T10:19:32.096Z,4.18
2023-12-28T10:22:21.329Z,3.83
2023-12-28T10:25:09.257Z,3.97
2023-12-28T10:27:56.889Z,3.47
2023-12-28T10:30:44.684Z,4.18
2023-12-28T10:33:38.905Z,3.05
2023-12-28T10:36:28.775Z,2.60
2023-12-28T10:39:19.283Z,3.40
2023-12-28T10:42:10.627Z,4.10
2023-12-28T10:45:03.278Z,2.80
2023-12-28T10:48:12.361Z,4.65
2023-12-28T10:51:02.064Z,4.47
2023-12-28T10:54:00.046Z,4.90
2023-12-28T10:56:51.537Z,3.63
2023-12-28T10:59:48.489Z,4.22
2023-12-28T11:02:40.595Z,3.70
2023-12-28T11:08:20.763Z,3.53
2023-12-28T11:11:09.070Z,3.00
2023-12-28T11:13:57.508Z,2.95
2023-12-28T11:16:46.154Z,3.05
2023-12-28T11:19:35.069Z,3.50
2023-12-28T11:22:27.006Z,3.65
2023-12-28T11:25:19.095Z,3.72
2023-12-28T11:28:13.364Z,3.97
2023-12-28T11:31:01.360Z,4.43
2023-12-28T11:34:01.008Z,3.83
2023-12-28T11:36:51.518Z,3.78
2023-12-28T11:39:41.664Z,2.70
2023-12-28T11:42:32.205Z,4.10
2023-12-28T11:45:22.850Z,3.08
2023-12-28T11:48:26.223Z,3.05
2023-12-28T11:51:14.066Z,2.92
2023-12-28T11:54:01.874Z,3.95
2023-12-28T11:56:50.001Z,2.67
2023-12-28T11:59:39.660Z,3.60
2023-12-28T12:02:27.669Z,2.95
2023-12-28T12:05:21.656Z,2.63
2023-12-28T12:08:12.275Z,3.38
2023-12-28T12:11:05.175Z,3.10
2023-12-28T12:13:53.228Z,2.22
2023-12-28T12:16:40.945Z,2.70
2023-12-28T12:19:29.077Z,3.60
2023-12-28T12:22:20.193Z,2.97
2023-12-28T12:25:10.679Z,4.15
2023-12-28T12:27:58.298Z,3.95
2023-12-28T12:30:53.427Z,4.00
2023-12-28T12:33:41.435Z,3.10
2023-12-28T12:36:29.317Z,3.20
2023-12-28T12:39:16.989Z,3.65
2023-12-28T12:42:04.849Z,3.92
2023-12-28T12:44:52.515Z,4.03
2023-12-28T12:47:41.230Z,3.42
2023-12-28T12:50:35.415Z,3.35
2023-12-28T12:53:23.802Z,3.80
2023-12-28T12:56:12.500Z,2.53
2023-12-28T12:59:01.044Z,3.58
2023-12-28T13:01:54.670Z,2.95
2023-12-28T13:04:51.848Z,3.17
2023-12-28T13:07:40.207Z,3.60
2023-12-28T13:10:28.067Z,2.95
2023-12-28T13:13:15.707Z,2.40
2023-12-28T13:16:04.146Z,3.53
2023-12-28T13:18:52.327Z,3.25
2023-12-28T13:21:40.902Z,4.18
2023-12-28T13:24:28.719Z,3.13
2023-12-28T13:27:16.453Z,2.65
2023-12-28T13:30:04.847Z,3.58
2023-12-28T13:32:53.683Z,3.72
2023-12-28T13:35:41.292Z,3.47
2023-12-28T13:38:32.460Z,3.90
2023-12-28T13:41:21.205Z,4.15
2023-12-28T13:44:13.903Z,4.20
2023-12-28T13:47:07.501Z,4.25
2023-12-28T13:49:57.170Z,4.93
2023-12-28T13:52:44.967Z,3.92
2023-12-28T13:55:34.812Z,4.80
2023-12-28T13:58:22.567Z,3.67
2023-12-28T14:01:11.728Z,3.85
2023-12-28T14:03:59.686Z,2.95
2023-12-28T14:06:47.775Z,3.47
2023-12-28T14:09:37.468Z,3.05
2023-12-28T14:12:25.401Z,4.20
2023-12-28T14:15:17.703Z,4.75
2023-12-28T14:20:54.460Z,4.63
2023-12-28T14:23:42.327Z,4.78
2023-12-28T14:26:30.815Z,5.10
2023-12-28T14:29:18.573Z,5.22
2023-12-28T14:32:06.398Z,5.13
2023-12-28T14:34:54.810Z,5.85
2023-12-28T14:37:43.212Z,5.40
2023-12-28T14:40:30.901Z,8.50
2023-12-28T14:43:18.976Z,9.77
2023-12-28T14:46:07.207Z,11.82
2023-12-28T14:48:56.025Z,7.22
2023-12-28T14:51:43.880Z,5.97
2023-12-28T14:54:34.469Z,5.80
2023-12-28T14:57:24.737Z,6.88
2023-12-28T15:00:12.642Z,9.10
2023-12-28T15:03:00.321Z,7.68
2023-12-28T15:05:48.833Z,8.75
2023-12-28T15:08:36.531Z,8.15
2023-12-28T15:11:33.834Z,9.60
2023-12-28T15:14:32.513Z,10.40
2023-12-28T15:17:20.403Z,9.35
2023-12-28T15:20:09.787Z,12.52
2023-12-28T15:23:03.547Z,15.43
2023-12-28T15:26:09.929Z,16.05
2023-12-28T15:29:00.155Z,12.52
2023-12-28T15:31:47.867Z,14.18
2023-12-28T15:34:35.630Z,17.92
2023-12-28T15:37:23.342Z,16.42
2023-12-28T15:40:11.491Z,25.20
2023-12-28T15:42:59.293Z,18.80
2023-12-28T15:45:46.942Z,14.70
2023-12-28T15:48:37.018Z,15.38
2023-12-28T15:54:14.367Z,13.80
2023-12-28T15:57:02.093Z,17.60
2023-12-28T15:59:50.257Z,17.10
2023-12-28T16:02:37.904Z,18.00
2023-12-28T16:05:25.598Z,19.42
2023-12-28T16:08:13.754Z,18.08
2023-12-28T16:11:03.218Z,15.68
2023-12-28T16:13:51.008Z,15.63
2023-12-28T16:16:38.817Z,19.85
2023-12-28T16:19:26.510Z,16.52
2023-12-28T16:22:15.223Z,19.77
2023-12-28T16:25:03.312Z,22.73
2023-12-28T16:27:51.109Z,23.83
2023-12-28T16:30:40.416Z,25.02
2023-12-28T16:33:31.384Z,26.83
2023-12-28T16:36:20.378Z,25.70
2023-12-28T16:39:08.587Z,24.38
2023-12-28T16:41:57.771Z,30.70
2023-12-28T16:44:48.226Z,23.95
2023-12-28T16:47:35.900Z,31.20
2023-12-28T16:50:25.602Z,53.60
2023-12-28T16:53:17.535Z,44.40
2023-12-28T16:56:05.357Z,44.92
2023-12-28T16:58:53.111Z,54.05
2023-12-28T17:01:40.878Z,55.50
2023-12-28T17:04:31.464Z,54.08
2023-12-28T17:07:22.014Z,56.90
2023-12-28T17:10:12.449Z,98.93
2023-12-28T17:13:00.400Z,87.43
2023-12-28T17:15:48.226Z,70.45
2023-12-28T17:18:48.566Z,77.50
2023-12-28T17:21:40.866Z,76.07
2023-12-28T17:27:20.587Z,50.50
2023-12-28T17:30:09.839Z,49.85
2023-12-28T17:33:03.074Z,42.83
2023-12-28T17:35:51.006Z,45.38
2023-12-28T17:38:38.815Z,39.13
2023-12-28T17:41:27.717Z,43.65
2023-12-28T17:44:19.388Z,44.58
2023-12-28T17:47:10.827Z,44.22
2023-12-28T17:50:01.287Z,45.85
2023-12-28T17:52:50.111Z,63.05
2023-12-28T17:55:37.716Z,76.10
2023-12-28T17:58:25.527Z,61.70
2023-12-28T18:01:17.129Z,51.38
2023-12-28T18:04:04.941Z,51.67
2023-12-28T18:06:54.097Z,50.85
2023-12-28T18:09:45.799Z,59.08
2023-12-28T18:12:33.612Z,57.97
2023-12-28T18:15:21.298Z,60.05
2023-12-28T18:18:09.028Z,57.35
2023-12-28T18:20:57.100Z,53.22
2023-12-28T18:23:47.132Z,45.08
2023-12-28T18:26:34.725Z,45.00
2023-12-28T18:29:23.379Z,42.03
2023-12-28T18:32:12.405Z,40.63
2023-12-28T18:35:00.040Z,45.00
2023-12-28T18:37:47.646Z,45.13
2023-12-28T18:40:38.361Z,44.05
2023-12-28T18:43:26.895Z,44.08
2023-12-28T18:46:14.679Z,40.72
2023-12-28T18:49:04.442Z,38.92
2023-12-28T18:51:52.242Z,35.90
2023-12-28T18:54:40.267Z,42.63
2023-12-28T18:57:28.184Z,41.80
2023-12-28T19:00:16.475Z,42.38
2023-12-28T19:03:05.421Z,40.78
2023-12-28T19:05:54.480Z,43.15
2023-12-28T19:08:52.173Z,41.05
2023-12-28T19:11:40.720Z,36.17
2023-12-28T19:14:28.446Z,38.42
2023-12-28T19:17:19.077Z,38.92
2023-12-28T19:20:07.023Z,37.55
2023-12-28T19:22:54.802Z,38.80
2023-12-28T19:25:42.614Z,46.53
2023-12-28T19:28:33.545Z,46.25
2023-12-28T19:31:21.374Z,47.17
2023-12-28T19:34:09.178Z,52.83
2023-12-28T19:36:56.967Z,46.92
2023-12-28T19:39:46.014Z,52.38
2023-12-28T19:42:33.703Z,54.28
2023-12-28T19:45:21.395Z,54.17
2023-12-28T19:48:09.637Z,57.78
2023-12-28T19:50:57.365Z,61.42
2023-12-28T19:53:45.457Z,68.10
2023-12-28T19:56:33.168Z,75.18
2023-12-28T19:59:21.189Z,72.00
2023-12-28T20:02:10.372Z,72.20
2023-12-28T20:04:58.096Z,67.32
2023-12-28T20:07:45.773Z,68.88
2023-12-28T20:10:34.325Z,66.93
2023-12-28T20:13:22.695Z,60.15
2023-12-28T20:16:11.132Z,57.75
2023-12-28T20:19:01.927Z,60.83
2023-12-28T20:21:51.954Z,55.40
2023-12-28T20:24:40.442Z,50.80
2023-12-28T20:27:28.242Z,49.22
2023-12-28T20:30:19.396Z,49.72
2023-12-28T20:33:08.606Z,59.35
2023-12-28T20:35:58.669Z,54.25
2023-12-28T20:38:46.354Z,52.10
2023-12-28T20:41:36.761Z,43.88
2023-12-28T20:44:24.547Z,40.50
2023-12-28T20:47:13.310Z,32.45
2023-12-28T20:50:02.306Z,27.23
2023-12-28T20:52:52.400Z,31.67
2023-12-28T20:55:40.781Z,41.58
2023-12-28T20:58:28.814Z,38.13
2023-12-28T21:01:16.749Z,34.72
2023-12-28T21:04:04.731Z,33.78
2023-12-28T21:06:52.548Z,33.58
2023-12-28T21:09:44.277Z,34.22
2023-12-28T21:12:38.373Z,29.80
2023-12-28T21:15:26.179Z,32.88
2023-12-28T21:18:19.722Z,35.92
2023-12-28T21:21:15.141Z,31.73
2023-12-28T21:24:05.678Z,31.25
2023-12-28T21:26:53.356Z,23.70
2023-12-28T21:29:41.796Z,26.48
2023-12-28T21:32:29.559Z,24.45
2023-12-28T21:35:17.523Z,19.77
2023-12-28T21:38:08.738Z,21.85
2023-12-28T21:40:56.479Z,21.17
2023-12-28T21:43:44.394Z,21.73
2023-12-28T21:46:32.404Z,21.95
2023-12-28T21:49:24.187Z,23.17
2023-12-28T21:52:15.983Z,21.63
2023-12-28T21:55:06.015Z,23.00
2023-12-28T21:57:56.133Z,22.02
2023-12-28T22:00:44.007Z,25.33
2023-12-28T22:03:31.961Z,25.80
2023-12-28T22:06:21.025Z,25.25
2023-12-28T22:09:08.628Z,26.35
2023-12-28T22:11:56.486Z,26.80
2023-12-28T22:14:45.372Z,25.05
2023-12-28T22:17:33.404Z,25.70
2023-12-28T22:20:24.142Z,33.03
2023-12-28T22:23:12.728Z,47.10
2023-12-28T22:26:00.661Z,44.13
2023-12-28T22:28:48.422Z,34.63
2023-12-28T22:31:36.611Z,37.20
2023-12-28T22:34:24.711Z,38.85
2023-12-28T22:37:12.831Z,37.00
2023-12-28T22:40:03.785Z,33.42
2023-12-28T22:42:54.757Z,36.67
2023-12-28T22:45:42.593Z,31.50
2023-12-28T22:48:30.413Z,30.85
2023-12-28T22:51:18.973Z,29.15
2023-12-28T22:54:06.816Z,27.73
2023-12-28T22:56:54.809Z,26.08
2023-12-28T22:59:46.792Z,25.30
2023-12-28T23:02:34.725Z,23.52
2023-12-28T23:05:23.022Z,23.38
2023-12-28T23:08:10.922Z,29.40
2023-12-28T23:10:59.505Z,25.38
2023-12-28T23:13:47.295Z,24.83
2023-12-28T23:16:41.999Z,23.63
2023-12-28T23:19:29.742Z,30.50
2023-12-28T23:22:17.953Z,29.60
2023-12-28T23:25:08.587Z,28.20
2023-12-28T23:27:56.302Z,29.35
2023-12-28T23:31:16.398Z,31.52
2023-12-28T23:34:09.143Z,30.58
2023-12-28T23:37:02.933Z,32.42
2023-12-28T23:39:50.960Z,31.63
2023-12-28T23:42:38.741Z,33.63
2023-12-28T23:45:29.724Z,29.27
2023-12-28T23:48:17.547Z,30.50
2023-12-28T23:51:10.589Z,31.88
2023-12-28T23:53:58.195Z,31.40
2023-12-28T23:56:48.780Z,29.10
2023-12-28T23:59:37.712Z,30.15
